sensor_id;sensor_type;location;lat;lon;timestamp;temperature;humidity
46590;DHT22;32313;48.722;9.362;2023-03-16T00:00:52;-2.50;99.90
46590;DHT22;32313;48.722;9.362;2023-03-16T00:03:18;-2.50;99.90
46590;DHT22;32313;48.722;9.362;2023-03-16T00:05:53;-2.60;99.90
46590;DHT22;32313;48.722;9.362;2023-03-16T00:08:19;-2.70;99.90
46590;DHT22;32313;48.722;9.362;2023-03-16T00:10:45;-2.70;99.90
46590;DHT22;32313;48.722;9.362;2023-03-16T00:13:15;-2.70;99.90
46590;DHT22;32313;48.722;9.362;2023-03-16T00:15:48;-2.70;99.90
46590;DHT22;32313;48.722;9.362;2023-03-16T00:18:14;-2.70;99.90
46590;DHT22;32313;48.722;9.362;2023-03-16T00:20:40;-2.70;99.90
46590;DHT22;32313;48.722;9.362;2023-03-16T00:23:06;-2.80;99.90
46590;DHT22;32313;48.722;9.362;2023-03-16T00:25:32;-2.80;99.90
46590;DHT22;32313;48.722;9.362;2023-03-16T00:27:58;-2.80;99.90
46590;DHT22;32313;48.722;9.362;2023-03-16T00:30:29;-2.80;99.90
46590;DHT22;32313;48.722;9.362;2023-03-16T00:32:56;-2.90;99.90
46590;DHT22;32313;48.722;9.362;2023-03-16T00:35:21;-2.80;99.90
46590;DHT22;32313;48.722;9.362;2023-03-16T00:37:47;-2.80;99.90
46590;DHT22;32313;48.722;9.362;2023-03-16T00:40:13;-2.80;99.90
46590;DHT22;32313;48.722;9.362;2023-03-16T00:42:38;-2.90;99.90
46590;DHT22;32313;48.722;9.362;2023-03-16T00:45:04;-2.90;99.90
46590;DHT22;32313;48.722;9.362;2023-03-16T00:47:33;-3.00;99.90
46590;DHT22;32313;48.722;9.362;2023-03-16T00:50:00;-3.00;99.90
46590;DHT22;32313;48.722;9.362;2023-03-16T00:52:26;-3.10;99.90
46590;DHT22;32313;48.722;9.362;2023-03-16T00:54:53;-3.00;99.90
46590;DHT22;32313;48.722;9.362;2023-03-16T00:57:20;-3.10;99.90
46590;DHT22;32313;48.722;9.362;2023-03-16T00:59:47;-3.10;99.90
46590;DHT22;32313;48.722;9.362;2023-03-16T01:02:15;-3.20;99.90
46590;DHT22;32313;48.722;9.362;2023-03-16T01:04:41;-3.20;99.90
46590;DHT22;32313;48.722;9.362;2023-03-16T01:07:11;-3.20;99.90
46590;DHT22;32313;48.722;9.362;2023-03-16T01:09:38;-3.20;99.90
46590;DHT22;32313;48.722;9.362;2023-03-16T01:12:11;-3.10;99.90
46590;DHT22;32313;48.722;9.362;2023-03-16T01:14:37;-3.10;99.90
46590;DHT22;32313;48.722;9.362;2023-03-16T01:17:06;-3.10;99.90
46590;DHT22;32313;48.722;9.362;2023-03-16T01:19:34;-3.20;99.90
46590;DHT22;32313;48.722;9.362;2023-03-16T01:22:01;-3.10;99.90
46590;DHT22;32313;48.722;9.362;2023-03-16T01:24:28;-3.10;99.90
46590;DHT22;32313;48.722;9.362;2023-03-16T01:26:54;-3.10;99.90
46590;DHT22;32313;48.722;9.362;2023-03-16T01:29:20;-3.10;99.90
46590;DHT22;32313;48.722;9.362;2023-03-16T01:31:47;-3.00;99.90
46590;DHT22;32313;48.722;9.362;2023-03-16T01:34:15;-3.10;99.90
46590;DHT22;32313;48.722;9.362;2023-03-16T01:36:42;-3.10;99.90
46590;DHT22;32313;48.722;9.362;2023-03-16T01:39:10;-3.20;99.90
46590;DHT22;32313;48.722;9.362;2023-03-16T01:41:43;-3.30;99.90
46590;DHT22;32313;48.722;9.362;2023-03-16T01:44:13;-3.40;99.90
46590;DHT22;32313;48.722;9.362;2023-03-16T01:46:40;-3.40;99.90
46590;DHT22;32313;48.722;9.362;2023-03-16T01:49:17;-3.40;99.90
46590;DHT22;32313;48.722;9.362;2023-03-16T01:54:21;-3.40;99.90
46590;DHT22;32313;48.722;9.362;2023-03-16T01:56:50;-3.40;99.90
46590;DHT22;32313;48.722;9.362;2023-03-16T01:59:19;-3.40;99.90
46590;DHT22;32313;48.722;9.362;2023-03-16T02:01:48;-3.30;99.90
46590;DHT22;32313;48.722;9.362;2023-03-16T02:04:42;-3.30;99.90
46590;DHT22;32313;48.722;9.362;2023-03-16T02:07:10;-3.30;99.90
46590;DHT22;32313;48.722;9.362;2023-03-16T02:09:40;-3.30;99.90
46590;DHT22;32313;48.722;9.362;2023-03-16T02:12:14;-3.30;99.90
46590;DHT22;32313;48.722;9.362;2023-03-16T02:14:48;-3.30;99.90
46590;DHT22;32313;48.722;9.362;2023-03-16T02:17:18;-3.30;99.90
46590;DHT22;32313;48.722;9.362;2023-03-16T02:22:17;-3.40;99.90
46590;DHT22;32313;48.722;9.362;2023-03-16T02:24:44;-3.40;99.90
46590;DHT22;32313;48.722;9.362;2023-03-16T02:27:12;-3.40;99.90
46590;DHT22;32313;48.722;9.362;2023-03-16T02:29:56;-3.40;99.90
46590;DHT22;32313;48.722;9.362;2023-03-16T02:32:27;-3.40;99.90
46590;DHT22;32313;48.722;9.362;2023-03-16T02:34:54;-3.40;99.90
46590;DHT22;32313;48.722;9.362;2023-03-16T02:37:20;-3.40;99.90
46590;DHT22;32313;48.722;9.362;2023-03-16T02:39:47;-3.30;99.90
46590;DHT22;32313;48.722;9.362;2023-03-16T02:42:19;-3.40;99.90
46590;DHT22;32313;48.722;9.362;2023-03-16T02:45:01;-3.30;99.90
46590;DHT22;32313;48.722;9.362;2023-03-16T02:47:36;-3.30;99.90
46590;DHT22;32313;48.722;9.362;2023-03-16T02:50:03;-3.30;99.90
46590;DHT22;32313;48.722;9.362;2023-03-16T02:52:36;-3.30;99.90
46590;DHT22;32313;48.722;9.362;2023-03-16T02:55:04;-3.30;99.90
46590;DHT22;32313;48.722;9.362;2023-03-16T02:57:30;-3.40;99.90
46590;DHT22;32313;48.722;9.362;2023-03-16T02:59:59;-3.50;99.90
46590;DHT22;32313;48.722;9.362;2023-03-16T03:02:26;-3.50;99.90
46590;DHT22;32313;48.722;9.362;2023-03-16T03:04:51;-3.50;99.90
46590;DHT22;32313;48.722;9.362;2023-03-16T03:07:20;-3.60;99.90
46590;DHT22;32313;48.722;9.362;2023-03-16T03:09:57;-3.60;99.90
46590;DHT22;32313;48.722;9.362;2023-03-16T03:12:23;-3.60;99.90
46590;DHT22;32313;48.722;9.362;2023-03-16T03:14:48;-3.60;99.90
46590;DHT22;32313;48.722;9.362;2023-03-16T03:17:17;-3.60;99.90
46590;DHT22;32313;48.722;9.362;2023-03-16T03:19:42;-3.50;99.90
46590;DHT22;32313;48.722;9.362;2023-03-16T03:22:08;-3.50;99.90
46590;DHT22;32313;48.722;9.362;2023-03-16T03:24:34;-3.60;99.90
46590;DHT22;32313;48.722;9.362;2023-03-16T03:27:01;-3.70;99.90
46590;DHT22;32313;48.722;9.362;2023-03-16T03:29:31;-3.70;99.90
46590;DHT22;32313;48.722;9.362;2023-03-16T03:32:03;-3.70;99.90
46590;DHT22;32313;48.722;9.362;2023-03-16T03:34:30;-3.70;99.90
46590;DHT22;32313;48.722;9.362;2023-03-16T03:36:57;-3.70;99.90
46590;DHT22;32313;48.722;9.362;2023-03-16T03:39:24;-3.70;99.90
46590;DHT22;32313;48.722;9.362;2023-03-16T03:41:50;-3.70;99.90
46590;DHT22;32313;48.722;9.362;2023-03-16T03:44:23;-3.60;99.90
46590;DHT22;32313;48.722;9.362;2023-03-16T03:46:50;-3.70;99.90
46590;DHT22;32313;48.722;9.362;2023-03-16T03:49:16;-3.60;99.90
46590;DHT22;32313;48.722;9.362;2023-03-16T03:51:43;-3.60;99.90
46590;DHT22;32313;48.722;9.362;2023-03-16T03:54:16;-3.60;99.90
46590;DHT22;32313;48.722;9.362;2023-03-16T03:57:00;-3.60;99.90
46590;DHT22;32313;48.722;9.362;2023-03-16T03:59:26;-3.60;99.90
46590;DHT22;32313;48.722;9.362;2023-03-16T04:02:04;-3.70;99.90
46590;DHT22;32313;48.722;9.362;2023-03-16T04:04:44;-3.70;99.90
46590;DHT22;32313;48.722;9.362;2023-03-16T04:07:12;-3.70;99.90
46590;DHT22;32313;48.722;9.362;2023-03-16T04:09:38;-3.60;99.90
46590;DHT22;32313;48.722;9.362;2023-03-16T04:12:06;-3.60;99.90
46590;DHT22;32313;48.722;9.362;2023-03-16T04:14:32;-3.70;99.90
46590;DHT22;32313;48.722;9.362;2023-03-16T04:17:00;-3.70;99.90
46590;DHT22;32313;48.722;9.362;2023-03-16T04:19:26;-3.80;99.90
46590;DHT22;32313;48.722;9.362;2023-03-16T04:21:54;-3.80;99.90
46590;DHT22;32313;48.722;9.362;2023-03-16T04:24:19;-3.70;99.90
46590;DHT22;32313;48.722;9.362;2023-03-16T04:26:47;-3.80;99.90
46590;DHT22;32313;48.722;9.362;2023-03-16T04:29:14;-3.80;99.90
46590;DHT22;32313;48.722;9.362;2023-03-16T04:31:43;-3.80;99.90
46590;DHT22;32313;48.722;9.362;2023-03-16T04:34:09;-3.80;99.90
46590;DHT22;32313;48.722;9.362;2023-03-16T04:36:37;-3.70;99.90
46590;DHT22;32313;48.722;9.362;2023-03-16T04:39:07;-3.70;99.90
46590;DHT22;32313;48.722;9.362;2023-03-16T04:41:33;-3.70;99.90
46590;DHT22;32313;48.722;9.362;2023-03-16T04:44:07;-3.70;99.90
46590;DHT22;32313;48.722;9.362;2023-03-16T04:46:33;-3.70;99.90
46590;DHT22;32313;48.722;9.362;2023-03-16T04:49:03;-3.70;99.90
46590;DHT22;32313;48.722;9.362;2023-03-16T04:51:29;-3.70;99.90
46590;DHT22;32313;48.722;9.362;2023-03-16T04:54:05;-3.70;99.90
46590;DHT22;32313;48.722;9.362;2023-03-16T04:56:34;-3.70;99.90
46590;DHT22;32313;48.722;9.362;2023-03-16T04:59:04;-3.70;99.90
46590;DHT22;32313;48.722;9.362;2023-03-16T05:01:39;-3.70;99.90
46590;DHT22;32313;48.722;9.362;2023-03-16T05:04:06;-3.70;99.90
46590;DHT22;32313;48.722;9.362;2023-03-16T05:06:35;-3.70;99.90
46590;DHT22;32313;48.722;9.362;2023-03-16T05:09:01;-3.80;99.90
46590;DHT22;32313;48.722;9.362;2023-03-16T05:11:32;-3.80;99.90
46590;DHT22;32313;48.722;9.362;2023-03-16T05:14:00;-3.80;99.90
46590;DHT22;32313;48.722;9.362;2023-03-16T05:16:28;-3.80;99.90
46590;DHT22;32313;48.722;9.362;2023-03-16T05:18:57;-3.80;99.90
46590;DHT22;32313;48.722;9.362;2023-03-16T05:21:25;-3.80;99.90
46590;DHT22;32313;48.722;9.362;2023-03-16T05:23:57;-3.80;99.90
46590;DHT22;32313;48.722;9.362;2023-03-16T05:26:23;-3.80;99.90
46590;DHT22;32313;48.722;9.362;2023-03-16T05:28:52;-3.80;99.90
46590;DHT22;32313;48.722;9.362;2023-03-16T05:31:22;-3.80;99.90
46590;DHT22;32313;48.722;9.362;2023-03-16T05:33:52;-3.80;99.90
46590;DHT22;32313;48.722;9.362;2023-03-16T05:36:19;-3.80;99.90
46590;DHT22;32313;48.722;9.362;2023-03-16T05:38:48;-3.80;99.90
46590;DHT22;32313;48.722;9.362;2023-03-16T05:41:25;-3.80;99.90
46590;DHT22;32313;48.722;9.362;2023-03-16T05:43:58;-3.80;99.90
46590;DHT22;32313;48.722;9.362;2023-03-16T05:46:31;-3.80;99.90
46590;DHT22;32313;48.722;9.362;2023-03-16T05:48:58;-3.80;99.90
46590;DHT22;32313;48.722;9.362;2023-03-16T05:51:24;-3.80;99.90
46590;DHT22;32313;48.722;9.362;2023-03-16T05:53:53;-3.70;99.90
46590;DHT22;32313;48.722;9.362;2023-03-16T05:56:29;-3.60;99.90
46590;DHT22;32313;48.722;9.362;2023-03-16T05:58:56;-3.60;99.90
46590;DHT22;32313;48.722;9.362;2023-03-16T06:01:23;-3.50;99.90
46590;DHT22;32313;48.722;9.362;2023-03-16T06:03:49;-3.40;99.90
46590;DHT22;32313;48.722;9.362;2023-03-16T06:06:20;-3.40;99.90
46590;DHT22;32313;48.722;9.362;2023-03-16T06:08:59;-3.30;99.90
46590;DHT22;32313;48.722;9.362;2023-03-16T06:11:26;-3.30;99.90
46590;DHT22;32313;48.722;9.362;2023-03-16T06:13:52;-3.20;99.90
46590;DHT22;32313;48.722;9.362;2023-03-16T06:16:18;-3.10;99.90
46590;DHT22;32313;48.722;9.362;2023-03-16T06:18:44;-3.10;99.90
46590;DHT22;32313;48.722;9.362;2023-03-16T06:21:10;-3.00;99.90
46590;DHT22;32313;48.722;9.362;2023-03-16T06:23:37;-3.00;99.90
46590;DHT22;32313;48.722;9.362;2023-03-16T06:26:04;-2.90;99.90
46590;DHT22;32313;48.722;9.362;2023-03-16T06:28:32;-2.80;99.90
46590;DHT22;32313;48.722;9.362;2023-03-16T06:30:58;-2.80;99.90
46590;DHT22;32313;48.722;9.362;2023-03-16T06:33:28;-2.70;99.90
46590;DHT22;32313;48.722;9.362;2023-03-16T06:35:55;-2.60;99.90
46590;DHT22;32313;48.722;9.362;2023-03-16T06:38:29;-2.60;99.90
46590;DHT22;32313;48.722;9.362;2023-03-16T06:41:02;-2.50;99.90
46590;DHT22;32313;48.722;9.362;2023-03-16T06:43:30;-2.40;99.90
46590;DHT22;32313;48.722;9.362;2023-03-16T06:45:56;-2.30;99.90
46590;DHT22;32313;48.722;9.362;2023-03-16T06:48:23;-2.20;99.90
46590;DHT22;32313;48.722;9.362;2023-03-16T06:50:49;-2.00;99.90
46590;DHT22;32313;48.722;9.362;2023-03-16T06:53:20;-1.60;99.90
46590;DHT22;32313;48.722;9.362;2023-03-16T06:55:47;-1.20;99.90
46590;DHT22;32313;48.722;9.362;2023-03-16T06:58:13;-0.80;99.90
46590;DHT22;32313;48.722;9.362;2023-03-16T07:00:39;-0.20;99.90
46590;DHT22;32313;48.722;9.362;2023-03-16T07:03:05;0.40;99.90
46590;DHT22;32313;48.722;9.362;2023-03-16T07:05:32;0.80;99.90
46590;DHT22;32313;48.722;9.362;2023-03-16T07:07:58;1.10;99.90
46590;DHT22;32313;48.722;9.362;2023-03-16T07:10:24;1.50;99.90
46590;DHT22;32313;48.722;9.362;2023-03-16T07:12:50;1.90;99.90
46590;DHT22;32313;48.722;9.362;2023-03-16T07:15:16;2.20;99.90
46590;DHT22;32313;48.722;9.362;2023-03-16T07:17:42;2.50;99.90
46590;DHT22;32313;48.722;9.362;2023-03-16T07:20:09;2.80;99.90
46590;DHT22;32313;48.722;9.362;2023-03-16T07:22:36;3.20;99.90
46590;DHT22;32313;48.722;9.362;2023-03-16T07:25:05;3.60;99.90
46590;DHT22;32313;48.722;9.362;2023-03-16T07:27:32;4.10;99.90
46590;DHT22;32313;48.722;9.362;2023-03-16T07:30:00;4.50;99.90
46590;DHT22;32313;48.722;9.362;2023-03-16T07:32:26;4.80;99.90
46590;DHT22;32313;48.722;9.362;2023-03-16T07:34:52;5.20;99.90
46590;DHT22;32313;48.722;9.362;2023-03-16T07:37:18;5.50;99.90
46590;DHT22;32313;48.722;9.362;2023-03-16T07:39:45;6.00;99.90
46590;DHT22;32313;48.722;9.362;2023-03-16T07:42:16;6.40;99.90
46590;DHT22;32313;48.722;9.362;2023-03-16T07:44:56;6.80;99.90
46590;DHT22;32313;48.722;9.362;2023-03-16T07:47:22;7.10;99.90
46590;DHT22;32313;48.722;9.362;2023-03-16T07:49:49;7.30;99.90
46590;DHT22;32313;48.722;9.362;2023-03-16T07:52:15;7.60;99.90
46590;DHT22;32313;48.722;9.362;2023-03-16T07:54:42;8.00;99.90
46590;DHT22;32313;48.722;9.362;2023-03-16T07:57:09;8.10;99.90
46590;DHT22;32313;48.722;9.362;2023-03-16T07:59:43;7.90;99.90
46590;DHT22;32313;48.722;9.362;2023-03-16T08:02:16;7.70;99.90
46590;DHT22;32313;48.722;9.362;2023-03-16T08:04:43;7.40;99.90
46590;DHT22;32313;48.722;9.362;2023-03-16T08:07:11;6.50;99.90
46590;DHT22;32313;48.722;9.362;2023-03-16T08:09:49;5.60;99.90
46590;DHT22;32313;48.722;9.362;2023-03-16T08:12:21;5.00;99.90
46590;DHT22;32313;48.722;9.362;2023-03-16T08:14:47;5.00;99.90
46590;DHT22;32313;48.722;9.362;2023-03-16T08:17:21;5.30;99.90
46590;DHT22;32313;48.722;9.362;2023-03-16T08:19:49;5.90;99.90
46590;DHT22;32313;48.722;9.362;2023-03-16T08:22:15;6.10;99.90
46590;DHT22;32313;48.722;9.362;2023-03-16T08:24:44;6.60;99.90
46590;DHT22;32313;48.722;9.362;2023-03-16T08:27:11;7.30;99.90
46590;DHT22;32313;48.722;9.362;2023-03-16T08:29:40;8.00;99.90
46590;DHT22;32313;48.722;9.362;2023-03-16T08:32:10;8.70;99.90
46590;DHT22;32313;48.722;9.362;2023-03-16T08:34:41;9.20;99.90
46590;DHT22;32313;48.722;9.362;2023-03-16T08:37:07;9.90;99.90
46590;DHT22;32313;48.722;9.362;2023-03-16T08:39:34;10.20;99.90
46590;DHT22;32313;48.722;9.362;2023-03-16T08:42:03;10.20;99.90
46590;DHT22;32313;48.722;9.362;2023-03-16T08:44:38;10.30;99.90
46590;DHT22;32313;48.722;9.362;2023-03-16T08:47:04;10.60;99.90
46590;DHT22;32313;48.722;9.362;2023-03-16T08:49:31;10.80;99.90
46590;DHT22;32313;48.722;9.362;2023-03-16T08:52:03;11.00;99.90
46590;DHT22;32313;48.722;9.362;2023-03-16T08:54:29;11.10;99.90
46590;DHT22;32313;48.722;9.362;2023-03-16T08:56:57;11.40;99.90
46590;DHT22;32313;48.722;9.362;2023-03-16T08:59:22;11.60;99.90
46590;DHT22;32313;48.722;9.362;2023-03-16T09:01:49;11.70;99.90
46590;DHT22;32313;48.722;9.362;2023-03-16T09:04:14;11.60;99.90
46590;DHT22;32313;48.722;9.362;2023-03-16T09:06:40;12.00;99.90
46590;DHT22;32313;48.722;9.362;2023-03-16T09:09:06;11.90;99.90
46590;DHT22;32313;48.722;9.362;2023-03-16T09:11:34;11.90;99.90
46590;DHT22;32313;48.722;9.362;2023-03-16T09:14:00;12.10;99.90
46590;DHT22;32313;48.722;9.362;2023-03-16T09:16:26;12.60;99.90
46590;DHT22;32313;48.722;9.362;2023-03-16T09:18:52;12.80;99.90
46590;DHT22;32313;48.722;9.362;2023-03-16T09:21:18;13.10;99.90
46590;DHT22;32313;48.722;9.362;2023-03-16T09:23:44;13.20;99.90
46590;DHT22;32313;48.722;9.362;2023-03-16T09:26:11;13.50;99.90
46590;DHT22;32313;48.722;9.362;2023-03-16T09:28:38;13.30;99.90
46590;DHT22;32313;48.722;9.362;2023-03-16T09:31:07;13.40;99.90
46590;DHT22;32313;48.722;9.362;2023-03-16T09:33:33;13.80;99.90
46590;DHT22;32313;48.722;9.362;2023-03-16T09:36:00;14.00;99.90
46590;DHT22;32313;48.722;9.362;2023-03-16T09:38:27;14.20;99.90
46590;DHT22;32313;48.722;9.362;2023-03-16T09:41:14;14.30;99.90
46590;DHT22;32313;48.722;9.362;2023-03-16T09:44:08;14.40;99.90
46590;DHT22;32313;48.722;9.362;2023-03-16T09:46:45;14.60;99.90
46590;DHT22;32313;48.722;9.362;2023-03-16T09:49:16;15.00;99.90
46590;DHT22;32313;48.722;9.362;2023-03-16T09:51:57;14.70;99.90
46590;DHT22;32313;48.722;9.362;2023-03-16T09:55:04;14.10;99.90
46590;DHT22;32313;48.722;9.362;2023-03-16T10:01:31;14.80;98.40
46590;DHT22;32313;48.722;9.362;2023-03-16T10:07:34;15.30;94.20
46590;DHT22;32313;48.722;9.362;2023-03-16T10:13:04;14.90;95.10
46590;DHT22;32313;48.722;9.362;2023-03-16T10:15:38;15.10;96.20
46590;DHT22;32313;48.722;9.362;2023-03-16T10:18:21;15.30;95.80
46590;DHT22;32313;48.722;9.362;2023-03-16T10:20:50;15.50;94.40
46590;DHT22;32313;48.722;9.362;2023-03-16T10:23:19;15.30;93.80
46590;DHT22;32313;48.722;9.362;2023-03-16T10:25:47;15.60;94.40
46590;DHT22;32313;48.722;9.362;2023-03-16T10:28:16;15.40;92.90
46590;DHT22;32313;48.722;9.362;2023-03-16T10:30:43;15.30;92.80
46590;DHT22;32313;48.722;9.362;2023-03-16T10:33:33;15.10;92.30
46590;DHT22;32313;48.722;9.362;2023-03-16T10:36:34;14.80;92.10
46590;DHT22;32313;48.722;9.362;2023-03-16T10:39:13;14.90;90.50
46590;DHT22;32313;48.722;9.362;2023-03-16T10:41:46;14.90;92.60
46590;DHT22;32313;48.722;9.362;2023-03-16T10:46:44;14.90;91.30
46590;DHT22;32313;48.722;9.362;2023-03-16T10:52:15;15.70;91.40
46590;DHT22;32313;48.722;9.362;2023-03-16T10:54:50;16.00;88.10
46590;DHT22;32313;48.722;9.362;2023-03-16T11:00:12;16.10;86.00
46590;DHT22;32313;48.722;9.362;2023-03-16T11:02:39;16.50;86.60
46590;DHT22;32313;48.722;9.362;2023-03-16T11:07:48;16.80;85.60
46590;DHT22;32313;48.722;9.362;2023-03-16T11:12:52;17.40;82.60
46590;DHT22;32313;48.722;9.362;2023-03-16T11:15:19;17.80;79.40
46590;DHT22;32313;48.722;9.362;2023-03-16T11:17:50;17.90;80.30
46590;DHT22;32313;48.722;9.362;2023-03-16T11:20:27;17.70;79.40
46590;DHT22;32313;48.722;9.362;2023-03-16T11:22:55;17.90;76.10
46590;DHT22;32313;48.722;9.362;2023-03-16T11:25:39;18.00;79.70
46590;DHT22;32313;48.722;9.362;2023-03-16T11:28:11;17.70;74.80
46590;DHT22;32313;48.722;9.362;2023-03-16T11:31:00;17.50;73.70
46590;DHT22;32313;48.722;9.362;2023-03-16T11:33:28;17.40;76.70
46590;DHT22;32313;48.722;9.362;2023-03-16T11:44:36;18.00;74.50
46590;DHT22;32313;48.722;9.362;2023-03-16T11:49:49;18.20;71.90
46590;DHT22;32313;48.722;9.362;2023-03-16T11:58:16;17.90;67.00
46590;DHT22;32313;48.722;9.362;2023-03-16T12:15:25;18.50;69.20
46590;DHT22;32313;48.722;9.362;2023-03-16T12:20:57;18.60;67.20
46590;DHT22;32313;48.722;9.362;2023-03-16T12:23:42;18.20;66.90
46590;DHT22;32313;48.722;9.362;2023-03-16T12:26:13;17.90;67.40
46590;DHT22;32313;48.722;9.362;2023-03-16T12:28:40;17.90;65.70
46590;DHT22;32313;48.722;9.362;2023-03-16T12:31:16;18.10;66.50
46590;DHT22;32313;48.722;9.362;2023-03-16T12:39:35;18.20;65.40
46590;DHT22;32313;48.722;9.362;2023-03-16T12:42:31;18.60;65.40
46590;DHT22;32313;48.722;9.362;2023-03-16T12:50:23;18.70;64.10
46590;DHT22;32313;48.722;9.362;2023-03-16T12:52:51;18.80;61.40
46590;DHT22;32313;48.722;9.362;2023-03-16T12:55:22;19.00;64.40
46590;DHT22;32313;48.722;9.362;2023-03-16T12:57:49;18.90;64.00
46590;DHT22;32313;48.722;9.362;2023-03-16T13:00:16;18.20;62.00
46590;DHT22;32313;48.722;9.362;2023-03-16T13:02:55;17.60;65.50
46590;DHT22;32313;48.722;9.362;2023-03-16T13:05:33;17.20;65.50
46590;DHT22;32313;48.722;9.362;2023-03-16T13:08:14;16.90;66.60
46590;DHT22;32313;48.722;9.362;2023-03-16T13:10:41;16.90;67.10
46590;DHT22;32313;48.722;9.362;2023-03-16T13:13:15;16.50;66.20
46590;DHT22;32313;48.722;9.362;2023-03-16T13:15:42;16.10;68.30
46590;DHT22;32313;48.722;9.362;2023-03-16T13:21:00;16.00;67.90
46590;DHT22;32313;48.722;9.362;2023-03-16T13:26:16;16.40;69.40
46590;DHT22;32313;48.722;9.362;2023-03-16T13:28:49;17.50;64.10
46590;DHT22;32313;48.722;9.362;2023-03-16T13:31:34;18.00;63.20
46590;DHT22;32313;48.722;9.362;2023-03-16T13:34:01;18.40;64.00
46590;DHT22;32313;48.722;9.362;2023-03-16T13:36:29;18.90;61.30
46590;DHT22;32313;48.722;9.362;2023-03-16T13:39:11;18.90;62.30
46590;DHT22;32313;48.722;9.362;2023-03-16T13:41:38;18.70;60.60
46590;DHT22;32313;48.722;9.362;2023-03-16T13:44:13;18.60;63.20
46590;DHT22;32313;48.722;9.362;2023-03-16T13:46:39;18.80;62.80
46590;DHT22;32313;48.722;9.362;2023-03-16T13:49:05;18.70;63.30
46590;DHT22;32313;48.722;9.362;2023-03-16T13:51:33;18.70;62.90
46590;DHT22;32313;48.722;9.362;2023-03-16T13:54:15;18.20;64.00
46590;DHT22;32313;48.722;9.362;2023-03-16T13:56:42;17.50;63.80
46590;DHT22;32313;48.722;9.362;2023-03-16T13:59:09;17.10;65.00
46590;DHT22;32313;48.722;9.362;2023-03-16T14:01:36;16.60;64.20
46590;DHT22;32313;48.722;9.362;2023-03-16T14:04:05;16.30;64.00
46590;DHT22;32313;48.722;9.362;2023-03-16T14:06:36;15.80;65.80
46590;DHT22;32313;48.722;9.362;2023-03-16T14:09:05;15.30;67.40
46590;DHT22;32313;48.722;9.362;2023-03-16T14:11:32;15.00;68.50
46590;DHT22;32313;48.722;9.362;2023-03-16T14:13:59;15.00;70.10
46590;DHT22;32313;48.722;9.362;2023-03-16T14:16:27;15.30;69.50
46590;DHT22;32313;48.722;9.362;2023-03-16T14:19:00;16.20;69.10
46590;DHT22;32313;48.722;9.362;2023-03-16T14:21:28;17.10;67.10
46590;DHT22;32313;48.722;9.362;2023-03-16T14:24:03;17.70;65.60
46590;DHT22;32313;48.722;9.362;2023-03-16T14:26:44;18.40;65.60
46590;DHT22;32313;48.722;9.362;2023-03-16T14:29:20;18.70;64.60
46590;DHT22;32313;48.722;9.362;2023-03-16T14:31:49;18.80;62.90
46590;DHT22;32313;48.722;9.362;2023-03-16T14:34:21;18.50;62.70
46590;DHT22;32313;48.722;9.362;2023-03-16T14:36:47;18.30;63.90
46590;DHT22;32313;48.722;9.362;2023-03-16T14:39:15;17.90;63.20
46590;DHT22;32313;48.722;9.362;2023-03-16T14:41:42;17.20;66.00
46590;DHT22;32313;48.722;9.362;2023-03-16T14:44:22;17.00;66.60
46590;DHT22;32313;48.722;9.362;2023-03-16T14:46:49;16.70;68.20
46590;DHT22;32313;48.722;9.362;2023-03-16T14:51:49;16.50;68.70
46590;DHT22;32313;48.722;9.362;2023-03-16T14:54:19;16.60;68.20
46590;DHT22;32313;48.722;9.362;2023-03-16T14:56:59;16.50;68.80
46590;DHT22;32313;48.722;9.362;2023-03-16T14:59:24;16.20;68.20
46590;DHT22;32313;48.722;9.362;2023-03-16T15:01:51;15.90;69.60
46590;DHT22;32313;48.722;9.362;2023-03-16T15:04:27;15.80;70.60
46590;DHT22;32313;48.722;9.362;2023-03-16T15:06:54;15.60;70.20
46590;DHT22;32313;48.722;9.362;2023-03-16T15:09:38;15.30;68.90
46590;DHT22;32313;48.722;9.362;2023-03-16T15:12:24;15.10;70.30
46590;DHT22;32313;48.722;9.362;2023-03-16T15:14:51;15.10;70.10
46590;DHT22;32313;48.722;9.362;2023-03-16T15:17:35;15.20;69.90
46590;DHT22;32313;48.722;9.362;2023-03-16T15:20:01;15.40;67.00
46590;DHT22;32313;48.722;9.362;2023-03-16T15:22:35;15.40;68.20
46590;DHT22;32313;48.722;9.362;2023-03-16T15:25:24;15.30;68.90
46590;DHT22;32313;48.722;9.362;2023-03-16T15:27:52;15.00;69.20
46590;DHT22;32313;48.722;9.362;2023-03-16T15:30:24;14.80;69.80
46590;DHT22;32313;48.722;9.362;2023-03-16T15:32:50;14.80;71.90
46590;DHT22;32313;48.722;9.362;2023-03-16T15:35:16;14.70;71.00
46590;DHT22;32313;48.722;9.362;2023-03-16T15:37:42;14.60;72.50
46590;DHT22;32313;48.722;9.362;2023-03-16T15:40:26;14.70;72.20
46590;DHT22;32313;48.722;9.362;2023-03-16T15:42:52;14.50;72.10
46590;DHT22;32313;48.722;9.362;2023-03-16T15:45:20;14.20;72.20
46590;DHT22;32313;48.722;9.362;2023-03-16T15:47:47;14.00;72.90
46590;DHT22;32313;48.722;9.362;2023-03-16T15:50:15;13.90;72.90
46590;DHT22;32313;48.722;9.362;2023-03-16T15:52:43;13.80;73.10
46590;DHT22;32313;48.722;9.362;2023-03-16T15:55:16;13.60;74.00
46590;DHT22;32313;48.722;9.362;2023-03-16T15:57:44;13.50;74.20
46590;DHT22;32313;48.722;9.362;2023-03-16T16:00:39;13.30;73.10
46590;DHT22;32313;48.722;9.362;2023-03-16T16:03:05;13.20;72.30
46590;DHT22;32313;48.722;9.362;2023-03-16T16:05:32;13.10;73.20
46590;DHT22;32313;48.722;9.362;2023-03-16T16:07:58;12.90;73.10
46590;DHT22;32313;48.722;9.362;2023-03-16T16:10:25;12.70;72.80
46590;DHT22;32313;48.722;9.362;2023-03-16T16:12:54;12.50;73.50
46590;DHT22;32313;48.722;9.362;2023-03-16T16:15:26;12.40;73.80
46590;DHT22;32313;48.722;9.362;2023-03-16T16:17:54;12.30;74.20
46590;DHT22;32313;48.722;9.362;2023-03-16T16:20:28;12.10;74.40
46590;DHT22;32313;48.722;9.362;2023-03-16T16:22:55;12.00;74.90
46590;DHT22;32313;48.722;9.362;2023-03-16T16:25:26;11.90;75.70
46590;DHT22;32313;48.722;9.362;2023-03-16T16:27:53;11.80;75.80
46590;DHT22;32313;48.722;9.362;2023-03-16T16:32:48;11.50;76.30
46590;DHT22;32313;48.722;9.362;2023-03-16T16:35:16;11.40;77.50
46590;DHT22;32313;48.722;9.362;2023-03-16T16:37:42;11.30;77.10
46590;DHT22;32313;48.722;9.362;2023-03-16T16:40:20;11.20;78.00
46590;DHT22;32313;48.722;9.362;2023-03-16T16:42:49;11.10;79.00
46590;DHT22;32313;48.722;9.362;2023-03-16T16:45:24;11.00;78.80
46590;DHT22;32313;48.722;9.362;2023-03-16T16:47:52;10.90;78.80
46590;DHT22;32313;48.722;9.362;2023-03-16T16:50:24;10.80;79.40
46590;DHT22;32313;48.722;9.362;2023-03-16T16:52:50;10.70;79.90
46590;DHT22;32313;48.722;9.362;2023-03-16T16:55:17;10.60;80.20
46590;DHT22;32313;48.722;9.362;2023-03-16T16:57:44;10.50;80.00
46590;DHT22;32313;48.722;9.362;2023-03-16T17:00:20;10.30;80.30
46590;DHT22;32313;48.722;9.362;2023-03-16T17:02:52;10.20;80.80
46590;DHT22;32313;48.722;9.362;2023-03-16T17:05:20;10.10;80.70
46590;DHT22;32313;48.722;9.362;2023-03-16T17:07:47;9.90;82.40
46590;DHT22;32313;48.722;9.362;2023-03-16T17:10:19;9.80;83.10
46590;DHT22;32313;48.722;9.362;2023-03-16T17:12:47;9.70;83.70
46590;DHT22;32313;48.722;9.362;2023-03-16T17:17:46;9.50;84.30